KGCC

Gillette-Campbell County Airport

Gillette, Wyoming, USA
METAR KGCC 161353Z AUTO 00000KT 10SM OVC022 M01/M05 A2988 RMK AO2 SLP132 T10111050
Observed Flight Rules
Dec-16 @ 13:53 UTC (43 minutes ago) Marginal Visual Flight Rules
Wind Visibility Clouds
Calm 10 miles
  • Overcast at 2,200' AGL
Temperatures Readings
Current -1°C / 30°F
Dewpoint -5°C / 23°F
Humidity 75%
Altimeter 29.88" Hg
Pressure 1013.2 hPa
Elevation 1320
METAR KGCC 161353Z AUTO 00000KT 10SM OVC022 M01/M05 A2988 RMK AO2 SLP132 T10111050
Observed Flight Rules
Dec-16 @ 13:53 UTC
(43 minutes ago)
MVFR
Wind Visibility
Calm 10 miles
Clouds
  • Overcast at 2,200' AGL
Temperature Dewpoint
-1°C / 30°F -5°C / 23°F
Humidity Altimeter Pressure
75% 29.88" Hg 1013.2 hPa